Latest Weather Observations for Cape Flattery

IDQ60801

Issued at 1:03 pm EST Tuesday 30 August 2016 (issued every 30 minutes, with the page automatically refreshed every 10 minutes)

About weather observations | Map of weather stations | Latest weather observations for QLD | Other Formats
Station Details ID: 031213 Name: CAPE FLATTERY Lat: -14.97 Lon: 145.31 Height: 18.5 m
Data from the previous 72 hours. | See also: Recent months at Cape Flattery
Date/Time
EST
Temp
°C
App
Temp
°C
Dew
Point
°C
Rel
Hum
%
Delta-T
°C
Wind Press
QNH
hPa
Press
MSL
hPa
Rain since
9am
mm
Dir  Spd
km/h
Gust
km/h
Spd
kts
Gust
kts
30/01:00pm 27.8 23.9 17.9 54 6.3 SE 35 46 19 25 1018.4 1018.3 0.0
30/12:30pm 28.7 25.2 16.6 48 7.5 SE 30 43 16 23 1018.8 1018.7 0.0
30/12:00pm 28.1 24.4 17.0 51 6.9 SE 32 39 17 21 1019.1 1019.0 0.0
30/11:30am 27.4 23.5 16.4 51 6.8 SE 32 41 17 22 1019.6 1019.5 0.0
30/11:00am 27.6 23.9 16.9 52 6.7 SE 32 43 17 23 1019.8 1019.7 0.0
30/10:30am 27.5 24.5 16.8 52 6.7 SE 28 41 15 22 1020.0 1019.9 0.0
30/10:00am 26.8 22.9 16.4 53 6.4 SE 32 43 17 23 1020.2 1020.1 0.0
30/09:30am 26.2 24.6 19.3 65 4.4 SE 26 37 14 20 1020.2 1020.1 0.0
30/09:00am 26.0 22.9 18.4 63 4.8 SE 32 39 17 21 1020.0 1019.9 0.0
30/08:30am 25.9 23.7 18.6 64 4.6 SE 28 37 15 20 1019.5 1019.4 0.0
30/08:00am 24.4 21.6 17.4 65 4.3 SE 28 37 15 20 1019.1 1019.0 0.0
30/07:30am 24.6 22.1 17.1 63 4.6 ESE 26 35 14 19 1018.6 1018.5 0.0
30/07:00am 24.0 21.3 16.5 63 4.6 SE 26 33 14 18 1018.2 1018.1 0.0
30/06:30am 23.7 20.1 16.2 63 4.6 SE 30 41 16 22 1017.7 1017.6 0.0
30/06:00am 23.6 21.0 16.9 66 4.1 SE 26 39 14 21 1017.5 1017.4 0.0
30/05:30am 23.3 21.0 16.6 66 4.1 SE 24 35 13 19 1017.1 1017.0 0.0
30/05:00am 23.5 20.9 17.9 71 3.5 SE 28 41 15 22 1016.9 1016.8 0.0
30/04:30am 23.7 21.6 17.2 67 4.0 SE 24 37 13 20 1016.8 1016.7 0.0
30/04:00am 23.9 20.7 16.2 62 4.7 SE 28 39 15 21 1016.9 1016.8 0.0
30/03:30am 24.0 20.0 16.3 62 4.7 SE 32 43 17 23 1016.8 1016.7 0.0
30/03:00am 24.1 20.9 16.4 62 4.7 SE 28 37 15 20 1016.9 1016.8 0.0
30/02:30am 24.1 21.7 16.4 62 4.7 ESE 24 33 13 18 1017.2 1017.1 0.0
30/02:00am 23.9 20.9 15.9 61 4.8 SE 26 35 14 19 1017.3 1017.2 0.0
30/01:30am 23.8 21.4 16.3 63 4.6 SE 24 32 13 17 1017.5 1017.4 0.0
30/01:00am 23.6 21.2 16.4 64 4.4 SE 24 39 13 21 1017.7 1017.6 0.0
30/12:30am 23.4 20.2 16.4 64 4.3 SE 28 39 15 21 1017.9 1017.8 0.0
30/12:00am 24.1 20.4 16.1 61 4.9 SE 30 44 16 24 1018.1 1018.0 0.0
 
Date/Time
EST
Temp
°C
App
Temp
°C
Dew
Point
°C
Rel
Hum
%
Delta-T
°C
Wind Press
QNH
hPa
Press
MSL
hPa
Rain since
9am
mm
Dir  Spd
km/h
Gust
km/h
Spd
kts
Gust
kts
29/11:45pm 23.8 19.6 15.6 60 4.9 SE 32 50 17 27 1018.2 1018.1 0.0
29/11:30pm 24.1 19.8 15.3 58 5.3 SE 32 48 17 26 1018.2 1018.1 0.0
29/11:13pm 24.2 20.3 16.5 62 4.7 SE 32 50 17 27 1018.2 1018.1 0.0
29/11:00pm 24.2 19.6 16.2 61 4.9 SE 35 48 19 26 1018.1 1018.0 0.0
29/10:34pm 24.2 20.3 17.0 64 4.4 SE 33 52 18 28 1018.1 1018.0 0.0
29/10:30pm 24.2 20.3 17.0 64 4.4 SE 33 50 18 27 1018.1 1018.0 0.0
29/10:09pm 24.2 20.8 17.7 67 4.1 SE 32 50 17 27 1018.3 1018.2 0.0
29/10:00pm 24.2 20.5 17.4 65 4.2 SE 33 46 18 25 1018.3 1018.2 0.0
29/09:30pm 23.4 20.6 18.3 73 3.2 SE 30 41 16 22 1018.2 1018.1 0.0
29/09:00pm 24.2 21.6 17.7 67 4.1 SE 28 39 15 21 1018.3 1018.2 0.0
29/08:30pm 24.3 21.0 17.1 64 4.5 SE 30 39 16 21 1018.3 1018.2 0.0
29/08:00pm 24.2 22.0 17.0 64 4.4 SE 24 35 13 19 1018.1 1018.0 0.0
29/07:30pm 24.1 21.1 16.9 64 4.4 SE 28 44 15 24 1017.9 1017.8 0.0
29/07:00pm 24.0 20.9 16.5 63 4.6 SE 28 39 15 21 1017.6 1017.5 0.0
29/06:30pm 24.2 21.2 16.7 63 4.6 SE 28 39 15 21 1017.4 1017.3 0.0
29/06:00pm 24.3 20.5 16.6 62 4.7 SE 32 41 17 22 1017.1 1017.0 0.0
29/05:30pm 24.7 21.4 16.9 62 4.8 SE 30 43 16 23 1017.1 1017.0 0.0
29/05:00pm 25.0 21.2 16.7 60 5.1 SE 32 43 17 23 1016.9 1016.8 0.0
29/04:30pm 25.9 21.6 15.9 54 6.1 SE 33 44 18 24 1016.8 1016.7 0.0
29/04:00pm 26.1 21.4 16.9 57 5.7 SE 37 44 20 24 1016.6 1016.5 0.0
29/03:30pm 26.4 22.0 16.6 55 6.1 SE 35 48 19 26 1016.5 1016.4 0.0
29/03:00pm 26.6 21.0 15.6 50 6.7 SE 39 50 21 27 1016.7 1016.6 0.0
29/02:30pm 26.7 22.1 16.0 52 6.6 SE 35 46 19 25 1016.9 1016.8 0.0
29/02:00pm 26.5 21.4 16.7 55 6.1 SE 39 50 21 27 1017.0 1016.9 0.0
29/01:30pm 27.2 22.6 17.1 54 6.3 SE 37 48 20 26 1017.3 1017.2 0.0
29/01:00pm 27.2 22.9 16.8 53 6.5 SE 35 46 19 25 1017.5 1017.4 0.0
29/12:30pm 27.7 22.9 16.6 50 6.9 SE 37 48 20 26 1017.7 1017.6 0.0
29/12:00pm 27.4 22.9 15.4 48 7.3 SE 33 46 18 25 1018.1 1018.0 0.0
29/11:30am 27.9 23.4 16.5 50 7.1 SE 35 46 19 25 1018.4 1018.3 0.0
29/11:00am 26.8 22.3 15.5 50 6.9 SE 33 48 18 26 1018.8 1018.7 0.0
29/10:30am 26.6 22.8 17.1 56 5.9 SE 33 46 18 25 1019.1 1019.0 0.0
29/10:00am 26.3 22.2 16.5 54 6.0 SE 33 46 18 25 1019.2 1019.1 0.0
29/09:30am 26.1 21.9 17.2 58 5.6 SE 35 46 19 25 1019.2 1019.1 0.0
29/09:00am 25.6 21.6 17.5 61 5.1 SE 35 44 19 24 1019.1 1019.0 0.0
29/08:30am 25.0 20.1 16.4 59 5.3 SE 37 48 20 26 1018.7 1018.6 0.0
29/08:00am 23.9 19.8 16.4 63 4.6 SE 33 46 18 25 1018.6 1018.5 0.0
29/07:30am 23.6 19.5 16.4 64 4.4 SE 33 46 18 25 1018.3 1018.2 0.0
29/07:00am 23.2 19.2 16.3 65 4.2 SE 32 43 17 23 1017.9 1017.8 0.0
29/06:30am 22.8 19.1 15.1 62 4.6 SE 28 41 15 22 1017.5 1017.4 0.0
29/06:00am 22.7 18.4 15.3 63 4.4 SE 32 43 17 23 1017.1 1017.0 0.0
29/05:30am 22.8 18.4 15.6 64 4.3 SE 33 46 18 25 1016.8 1016.7 0.0
29/05:00am 22.5 17.5 15.1 63 4.4 SE 35 46 19 25 1016.5 1016.4 0.0
29/04:30am 22.3 17.5 14.7 62 4.5 SE 33 46 18 25 1016.5 1016.4 0.0
29/04:00am 22.4 17.7 14.3 60 4.7 SE 32 43 17 23 1016.5 1016.4 0.0
29/03:32am 22.5 17.4 13.6 57 5.2 SE 33 52 18 28 1016.5 1016.4 0.0
29/03:30am 22.4 17.4 14.0 59 4.9 SE 33 48 18 26 1016.5 1016.4 0.0
29/03:00am 22.6 17.8 14.7 61 4.7 SE 33 48 18 26 1016.8 1016.7 0.0
29/02:30am 22.7 17.7 15.0 61 4.6 SE 35 48 19 26 1017.1 1017.0 0.0
29/02:14am 22.5 18.8 15.1 63 4.4 SE 28 46 15 25 1017.3 1017.2 0.0
29/02:00am 22.3 17.8 14.9 63 4.4 SE 32 41 17 22 1017.4 1017.3 0.0
29/01:30am 22.5 17.7 14.6 61 4.7 SE 33 44 18 24 1017.6 1017.5 0.0
29/01:09am 22.4 17.7 14.3 60 4.8 SE 32 50 17 27 1017.8 1017.7 0.0
29/01:00am 22.4 17.4 14.0 59 4.9 SE 33 43 18 23 1017.8 1017.7 0.0
29/12:30am 22.4 17.0 14.0 59 4.9 SE 35 46 19 25 1018.0 1017.9 0.0
29/12:00am 22.2 17.3 13.8 59 4.9 SE 32 43 17 23 1018.4 1018.3 0.0
 
Date/Time
EST
Temp
°C
App
Temp
°C
Dew
Point
°C
Rel
Hum
%
Delta-T
°C
Wind Press
QNH
hPa
Press
MSL
hPa
Rain since
9am
mm
Dir  Spd
km/h
Gust
km/h
Spd
kts
Gust
kts
28/11:30pm 22.4 16.8 14.5 61 4.6 SE 37 50 20 27 1018.4 1018.3 0.0
28/11:00pm 22.5 16.8 13.0 55 5.4 SE 35 44 19 24 1018.7 1018.6 0.0
28/10:30pm 22.1 17.3 14.0 60 4.7 SE 32 43 17 23 1018.7 1018.6 0.0
28/10:00pm 22.4 17.3 13.7 58 5.0 SE 33 44 18 24 1018.8 1018.7 0.0
28/09:30pm 22.4 17.3 13.7 58 5.1 SE 33 46 18 25 1018.7 1018.6 0.0
28/09:00pm 22.3 16.9 13.9 59 4.9 SE 35 48 19 26 1018.7 1018.6 0.0
28/08:32pm 22.5 17.3 14.6 61 4.7 SE 35 54 19 29 1018.5 1018.4 0.0
28/08:30pm 22.5 17.7 14.6 61 4.7 SE 33 46 18 25 1018.5 1018.4 0.0
28/08:00pm 22.0 16.7 14.1 61 4.6 SE 35 48 19 26 1018.4 1018.3 0.0
28/07:30pm 22.2 16.7 14.8 63 4.4 SE 37 50 20 27 1018.0 1017.9 0.0
28/07:00pm 22.2 17.0 14.6 62 4.5 SE 35 46 19 25 1017.6 1017.5 0.0
28/06:30pm 22.4 16.6 15.0 63 4.4 SSE 39 52 21 28 1017.1 1017.0 0.0
28/06:00pm 22.5 16.9 14.4 60 4.8 SE 37 48 20 26 1016.9 1016.8 0.0
28/05:30pm 23.1 17.7 14.9 60 4.9 SSE 37 48 20 26 1017.0 1016.9 0.0
28/05:00pm 23.7 18.2 14.7 57 5.3 SE 37 48 20 26 1016.8 1016.7 0.0
28/04:30pm 24.3 18.9 15.0 56 5.6 SE 37 52 20 28 1016.7 1016.6 0.0
28/04:00pm 24.5 18.8 15.1 55 5.6 SE 39 50 21 27 1016.5 1016.4 0.0
28/03:30pm 25.1 19.3 14.9 53 6.1 SE 39 50 21 27 1016.6 1016.5 0.0
28/03:00pm 25.3 19.6 15.3 54 6.0 SE 39 50 21 27 1016.7 1016.6 0.0
28/02:30pm 25.5 20.0 15.8 55 5.9 SE 39 52 21 28 1017.0 1016.9 0.0
28/02:00pm 26.0 21.5 16.3 55 6.0 SE 35 52 19 28 1017.2 1017.1 0.0
28/01:30pm 26.5 21.0 16.7 55 6.1 SSE 41 50 22 27 1017.7 1017.6 0.0
28/01:00pm 26.9 21.7 16.5 53 6.4 SE 39 50 21 27 1018.1 1018.0 0.0
28/12:30pm 25.7 20.3 16.0 55 5.9 SE 39 50 21 27 1018.7 1018.6 0.0
28/12:00pm 26.3 20.9 15.0 49 6.8 SE 37 48 20 26 1019.0 1018.9 0.0
28/11:30am 26.2 21.2 16.2 54 6.1 SE 37 54 20 29 1019.3 1019.2 0.0
28/11:00am 26.2 20.9 16.2 54 6.1 SE 39 52 21 28 1019.7 1019.6 0.0
28/10:30am 25.7 19.8 15.7 54 6.1 SE 41 56 22 30 1020.2 1020.1 0.0
28/10:00am 25.6 20.4 16.5 57 5.6 SE 39 52 21 28 1020.3 1020.2 0.0
28/09:30am 25.6 20.7 17.3 60 5.2 SE 39 57 21 31 1020.1 1020.0 0.0
28/09:22am 25.1 19.9 16.5 59 5.3 SE 39 57 21 31 1020.0 1019.9 0.0
28/09:00am 24.9 19.5 16.9 61 4.9 SSE 41 57 22 31 1019.9 1019.8 0.0
28/08:30am 24.7 19.8 17.4 64 4.5 SE 39 54 21 29 1019.8 1019.7 0.0
28/08:00am 24.0 19.5 17.3 66 4.1 SE 37 50 20 27 1019.5 1019.4 0.0
28/07:30am 22.9 18.1 17.6 72 3.3 SE 39 52 21 28 1019.1 1019.0 0.0
28/07:17am 23.2 19.8 17.7 71 3.4 SE 32 50 17 27 1018.9 1018.8 0.0
28/07:00am 23.3 20.1 17.3 69 3.7 SE 30 43 16 23 1018.7 1018.6 0.0
28/06:39am 23.0 20.0 17.7 72 3.3 SE 30 48 16 26 1018.3 1018.2 0.0
28/06:30am 22.9 19.5 17.6 72 3.3 SE 32 41 17 22 1018.2 1018.1 0.0
28/06:00am 23.0 19.6 17.7 72 3.3 SE 32 43 17 23 1017.8 1017.7 0.0
28/05:30am 23.1 20.0 17.6 71 3.4 SE 30 39 16 21 1017.4 1017.3 0.0
28/05:00am 23.1 19.7 17.6 71 3.4 SE 32 43 17 23 1017.0 1016.9 0.0
28/04:30am 23.1 20.6 18.0 73 3.2 SE 28 35 15 19 1016.7 1016.6 0.0
28/04:00am 23.1 20.5 17.8 72 3.3 SE 28 37 15 20 1016.7 1016.6 0.0
28/03:30am 23.2 20.7 18.1 73 3.2 SE 28 39 15 21 1016.8 1016.7 0.0
28/03:00am 23.2 20.6 17.9 72 3.3 SE 28 39 15 21 1016.7 1016.6 0.0
28/02:30am 23.2 20.7 18.1 73 3.2 SE 28 37 15 20 1016.8 1016.7 0.0
28/02:00am 23.3 20.4 18.0 72 3.3 SE 30 41 16 22 1016.8 1016.7 0.0
28/01:30am 23.1 20.7 18.2 74 3.1 SE 28 41 15 22 1017.1 1017.0 0.0
28/01:00am 23.1 20.6 18.0 73 3.2 SE 28 39 15 21 1017.3 1017.2 0.0
28/12:30am 23.2 20.6 17.9 72 3.3 SE 28 41 15 22 1017.6 1017.5 0.0
28/12:00am 23.3 20.7 17.7 71 3.5 SE 28 43 15 23 1017.9 1017.8 0.0
 
Date/Time
EST
Temp
°C
App
Temp
°C
Dew
Point
°C
Rel
Hum
%
Delta-T
°C
Wind Press
QNH
hPa
Press
MSL
hPa
Rain since
9am
mm
Dir  Spd
km/h
Gust
km/h
Spd
kts
Gust
kts
27/11:30pm 23.5 20.5 17.7 70 3.6 SE 30 41 16 22 1018.1 1018.0 0.0
27/11:00pm 23.5 20.8 18.4 73 3.2 SE 30 43 16 23 1018.2 1018.1 0.0
27/10:30pm 23.4 20.9 18.1 72 3.3 SE 28 41 15 22 1018.4 1018.3 0.0
27/10:00pm 23.4 20.2 18.1 72 3.3 SE 32 41 17 22 1018.4 1018.3 0.0
27/09:30pm 23.4 20.6 18.3 73 3.2 SE 30 43 16 23 1018.4 1018.3 0.0
27/09:00pm 23.4 20.0 18.1 72 3.3 SE 33 44 18 24 1018.4 1018.3 0.0
27/08:30pm 23.4 19.9 17.8 71 3.5 SE 33 43 18 23 1018.4 1018.3 0.0
27/08:00pm 23.3 19.5 18.0 72 3.3 SE 35 46 19 25 1018.2 1018.1 0.0
27/07:30pm 23.1 19.6 17.8 72 3.3 SE 33 44 18 24 1018.0 1017.9 0.0
27/07:00pm 23.0 19.0 17.7 72 3.3 SE 35 50 19 27 1017.6 1017.5 0.0
27/06:30pm 22.9 19.1 18.0 74 3.1 SSE 35 46 19 25 1017.2 1017.1 0.0
27/06:00pm 22.9 18.4 17.4 71 3.4 SSE 37 50 20 27 1017.1 1017.0 0.0
27/05:30pm 23.6 18.9 17.8 70 3.6 SSE 39 50 21 27 1017.1 1017.0 0.0
27/05:00pm 23.8 19.2 18.0 70 3.6 SSE 39 50 21 27 1016.9 1016.8 0.0
27/04:53pm 24.2 20.2 18.6 71 3.5 SSE 37 56 20 30 1016.8 1016.7 0.0
27/04:30pm 23.7 18.7 17.9 70 3.6 SSE 41 54 22 29 1016.3 1016.2 0.0
27/04:00pm 23.6 18.2 17.8 70 3.6 SSE 43 54 23 29 1016.0 1015.9 0.0
27/03:30pm 23.9 18.4 17.6 68 3.9 SSE 43 59 23 32 1016.0 1015.9 0.0
27/03:23pm 24.3 19.2 17.8 67 4.1 SSE 41 59 22 32 1016.0 1015.9 0.0
27/03:00pm 24.2 19.0 17.4 65 4.2 SSE 41 56 22 30 1016.0 1015.9 0.0
27/02:30pm 24.5 18.9 17.5 65 4.4 SSE 43 54 23 29 1016.1 1016.0 0.0
27/02:00pm 24.7 19.0 17.2 63 4.7 SSE 43 59 23 32 1016.3 1016.2 0.0
27/01:30pm 24.5 18.0 16.5 61 4.9 SSE 46 59 25 32 1016.6 1016.5 0.0

Other Formats:

Comma delimited format used in spreadsheet applications
http://www.bom.gov.au/fwo/IDQ60801/IDQ60801.94188.axf

JavaScript Object Notation format (JSON) in row-major order
http://www.bom.gov.au/fwo/IDQ60801/IDQ60801.94188.json